Terminal Aerodrome Forecast
Issued by NWS Cleveland, OH

Home | Current Version | Previous Version | Text Only | Print | Product List | Glossary Off
Versions: 1 2 3 4 5 6 7 8 9 10 11 12 13 14 15 16 17 18 19 20

000
FTUS41 KCLE 151732
TAFYNG
TAF
KYNG 151732Z 1518/1618 22018G32KT P6SM SCT025
      TEMPO 1518/1520 BKN025
     FM152030 26020G32KT P6SM VCSH SCT015 OVC025
      TEMPO 1521/1522 VRB30G40KT 3SM TSRA BKN015CB OVC025
     FM152300 27015G30KT P6SM SCT015 BKN025
     FM160100 28012G20KT P6SM BKN015
     FM161700 31010KT P6SM SCT015 BKN025=

USA.gov is the U.S. government's official web portal to all federal, state and local government web resources and services.